sensor_id;sensor_type;location;lat;lon;timestamp;P1;durP1;ratioP1;P2;durP2;ratioP2
58820;SDS011;70670;52.476;13.334;2024-01-15T00:01:18;17.15;;;10.40;;
58820;SDS011;70670;52.476;13.334;2024-01-15T00:06:23;16.98;;;10.45;;
58820;SDS011;70670;52.476;13.334;2024-01-15T00:08:48;17.45;;;10.30;;
58820;SDS011;70670;52.476;13.334;2024-01-15T00:11:14;20.42;;;10.70;;
58820;SDS011;70670;52.476;13.334;2024-01-15T00:13:39;20.40;;;11.70;;
58820;SDS011;70670;52.476;13.334;2024-01-15T00:16:05;18.27;;;10.23;;
58820;SDS011;70670;52.476;13.334;2024-01-15T00:18:31;20.40;;;11.93;;
58820;SDS011;70670;52.476;13.334;2024-01-15T00:20:56;18.58;;;10.02;;
58820;SDS011;70670;52.476;13.334;2024-01-15T00:23:22;17.02;;;9.60;;
58820;SDS011;70670;52.476;13.334;2024-01-15T00:25:48;21.10;;;11.88;;
58820;SDS011;70670;52.476;13.334;2024-01-15T00:28:15;15.00;;;8.80;;
58820;SDS011;70670;52.476;13.334;2024-01-15T00:30:41;16.88;;;10.15;;
58820;SDS011;70670;52.476;13.334;2024-01-15T00:33:07;18.88;;;11.38;;
58820;SDS011;70670;52.476;13.334;2024-01-15T00:35:33;19.83;;;11.18;;
58820;SDS011;70670;52.476;13.334;2024-01-15T00:37:58;19.20;;;10.50;;
58820;SDS011;70670;52.476;13.334;2024-01-15T00:40:24;15.98;;;9.48;;
58820;SDS011;70670;52.476;13.334;2024-01-15T00:42:50;15.07;;;9.55;;
58820;SDS011;70670;52.476;13.334;2024-01-15T00:45:16;18.08;;;10.57;;
58820;SDS011;70670;52.476;13.334;2024-01-15T00:47:42;14.23;;;8.23;;
58820;SDS011;70670;52.476;13.334;2024-01-15T00:50:07;18.67;;;9.23;;
58820;SDS011;70670;52.476;13.334;2024-01-15T00:52:33;16.58;;;9.95;;
58820;SDS011;70670;52.476;13.334;2024-01-15T00:54:59;17.50;;;9.00;;
58820;SDS011;70670;52.476;13.334;2024-01-15T00:57:25;14.30;;;8.88;;
58820;SDS011;70670;52.476;13.334;2024-01-15T00:59:51;18.13;;;9.27;;
58820;SDS011;70670;52.476;13.334;2024-01-15T01:02:16;15.38;;;9.60;;
58820;SDS011;70670;52.476;13.334;2024-01-15T01:04:42;18.45;;;9.85;;
58820;SDS011;70670;52.476;13.334;2024-01-15T01:07:07;20.00;;;10.63;;
58820;SDS011;70670;52.476;13.334;2024-01-15T01:09:33;16.48;;;9.77;;
58820;SDS011;70670;52.476;13.334;2024-01-15T01:11:58;15.48;;;9.00;;
58820;SDS011;70670;52.476;13.334;2024-01-15T01:14:24;20.00;;;10.00;;
58820;SDS011;70670;52.476;13.334;2024-01-15T01:16:50;18.48;;;10.93;;
58820;SDS011;70670;52.476;13.334;2024-01-15T01:19:15;20.15;;;10.80;;
58820;SDS011;70670;52.476;13.334;2024-01-15T01:21:41;17.30;;;9.90;;
58820;SDS011;70670;52.476;13.334;2024-01-15T01:24:07;21.38;;;10.80;;
58820;SDS011;70670;52.476;13.334;2024-01-15T01:26:32;18.60;;;10.07;;
58820;SDS011;70670;52.476;13.334;2024-01-15T01:28:58;21.45;;;11.13;;
58820;SDS011;70670;52.476;13.334;2024-01-15T01:31:24;21.52;;;10.70;;
58820;SDS011;70670;52.476;13.334;2024-01-15T01:33:50;21.85;;;10.02;;
58820;SDS011;70670;52.476;13.334;2024-01-15T01:36:15;18.83;;;9.23;;
58820;SDS011;70670;52.476;13.334;2024-01-15T01:38:41;19.65;;;10.90;;
58820;SDS011;70670;52.476;13.334;2024-01-15T01:41:07;23.98;;;12.27;;
58820;SDS011;70670;52.476;13.334;2024-01-15T01:43:32;19.38;;;11.43;;
58820;SDS011;70670;52.476;13.334;2024-01-15T01:45:58;22.27;;;12.15;;
58820;SDS011;70670;52.476;13.334;2024-01-15T01:48:26;23.00;;;11.60;;
58820;SDS011;70670;52.476;13.334;2024-01-15T01:50:53;25.45;;;13.10;;
58820;SDS011;70670;52.476;13.334;2024-01-15T01:53:21;23.17;;;11.82;;
58820;SDS011;70670;52.476;13.334;2024-01-15T01:55:48;29.60;;;13.02;;
58820;SDS011;70670;52.476;13.334;2024-01-15T01:58:14;23.00;;;12.75;;
58820;SDS011;70670;52.476;13.334;2024-01-15T02:00:40;25.30;;;12.10;;
58820;SDS011;70670;52.476;13.334;2024-01-15T02:03:06;24.10;;;12.57;;
58820;SDS011;70670;52.476;13.334;2024-01-15T02:05:31;27.65;;;12.27;;
58820;SDS011;70670;52.476;13.334;2024-01-15T02:07:57;23.77;;;11.73;;
58820;SDS011;70670;52.476;13.334;2024-01-15T02:10:23;24.83;;;11.73;;
58820;SDS011;70670;52.476;13.334;2024-01-15T02:12:49;23.20;;;12.02;;
58820;SDS011;70670;52.476;13.334;2024-01-15T02:15:14;19.98;;;11.18;;
58820;SDS011;70670;52.476;13.334;2024-01-15T02:20:25;21.35;;;10.90;;
58820;SDS011;70670;52.476;13.334;2024-01-15T02:22:51;18.73;;;9.68;;
58820;SDS011;70670;52.476;13.334;2024-01-15T02:25:17;18.50;;;9.68;;
58820;SDS011;70670;52.476;13.334;2024-01-15T02:27:43;18.02;;;8.93;;
58820;SDS011;70670;52.476;13.334;2024-01-15T02:30:11;18.40;;;8.82;;
58820;SDS011;70670;52.476;13.334;2024-01-15T02:32:37;22.80;;;9.93;;
58820;SDS011;70670;52.476;13.334;2024-01-15T02:35:03;17.25;;;7.75;;
58820;SDS011;70670;52.476;13.334;2024-01-15T02:37:29;15.13;;;8.32;;
58820;SDS011;70670;52.476;13.334;2024-01-15T02:39:54;16.65;;;7.72;;
58820;SDS011;70670;52.476;13.334;2024-01-15T02:42:20;13.85;;;7.45;;
58820;SDS011;70670;52.476;13.334;2024-01-15T02:44:46;12.98;;;7.05;;
58820;SDS011;70670;52.476;13.334;2024-01-15T02:47:11;15.25;;;7.63;;
58820;SDS011;70670;52.476;13.334;2024-01-15T02:49:37;15.38;;;7.90;;
58820;SDS011;70670;52.476;13.334;2024-01-15T02:52:03;15.60;;;8.52;;
58820;SDS011;70670;52.476;13.334;2024-01-15T02:54:28;15.73;;;8.98;;
58820;SDS011;70670;52.476;13.334;2024-01-15T02:56:54;15.73;;;8.70;;
58820;SDS011;70670;52.476;13.334;2024-01-15T02:59:19;14.55;;;8.55;;
58820;SDS011;70670;52.476;13.334;2024-01-15T03:01:45;16.90;;;8.68;;
58820;SDS011;70670;52.476;13.334;2024-01-15T03:04:11;14.10;;;8.48;;
58820;SDS011;70670;52.476;13.334;2024-01-15T03:06:36;17.98;;;8.50;;
58820;SDS011;70670;52.476;13.334;2024-01-15T03:09:02;15.45;;;8.30;;
58820;SDS011;70670;52.476;13.334;2024-01-15T03:11:29;15.05;;;8.02;;
58820;SDS011;70670;52.476;13.334;2024-01-15T03:13:54;13.98;;;8.15;;
58820;SDS011;70670;52.476;13.334;2024-01-15T03:16:20;15.80;;;7.28;;
58820;SDS011;70670;52.476;13.334;2024-01-15T03:18:45;15.35;;;7.43;;
58820;SDS011;70670;52.476;13.334;2024-01-15T03:21:11;12.85;;;7.63;;
58820;SDS011;70670;52.476;13.334;2024-01-15T03:23:37;14.48;;;7.18;;
58820;SDS011;70670;52.476;13.334;2024-01-15T03:26:03;15.13;;;6.30;;
58820;SDS011;70670;52.476;13.334;2024-01-15T03:28:28;11.75;;;6.30;;
58820;SDS011;70670;52.476;13.334;2024-01-15T03:30:55;12.85;;;6.90;;
58820;SDS011;70670;52.476;13.334;2024-01-15T03:33:21;14.75;;;7.10;;
58820;SDS011;70670;52.476;13.334;2024-01-15T03:35:47;17.45;;;7.22;;
58820;SDS011;70670;52.476;13.334;2024-01-15T03:38:12;14.35;;;6.60;;
58820;SDS011;70670;52.476;13.334;2024-01-15T03:40:38;11.80;;;5.93;;
58820;SDS011;70670;52.476;13.334;2024-01-15T03:43:03;16.90;;;6.90;;
58820;SDS011;70670;52.476;13.334;2024-01-15T03:45:29;14.82;;;6.10;;
58820;SDS011;70670;52.476;13.334;2024-01-15T03:47:54;12.85;;;6.50;;
58820;SDS011;70670;52.476;13.334;2024-01-15T03:50:20;14.85;;;6.75;;
58820;SDS011;70670;52.476;13.334;2024-01-15T03:52:46;12.77;;;6.05;;
58820;SDS011;70670;52.476;13.334;2024-01-15T03:55:11;11.88;;;6.72;;
58820;SDS011;70670;52.476;13.334;2024-01-15T03:57:37;12.95;;;6.35;;
58820;SDS011;70670;52.476;13.334;2024-01-15T04:00:03;19.65;;;6.63;;
58820;SDS011;70670;52.476;13.334;2024-01-15T04:02:29;16.10;;;5.55;;
58820;SDS011;70670;52.476;13.334;2024-01-15T04:04:54;12.38;;;5.80;;
58820;SDS011;70670;52.476;13.334;2024-01-15T04:07:20;18.10;;;5.47;;
58820;SDS011;70670;52.476;13.334;2024-01-15T04:09:46;11.85;;;4.43;;
58820;SDS011;70670;52.476;13.334;2024-01-15T04:12:11;9.80;;;4.93;;
58820;SDS011;70670;52.476;13.334;2024-01-15T04:14:37;13.32;;;5.18;;
58820;SDS011;70670;52.476;13.334;2024-01-15T04:17:02;11.60;;;4.95;;
58820;SDS011;70670;52.476;13.334;2024-01-15T04:19:28;14.68;;;5.97;;
58820;SDS011;70670;52.476;13.334;2024-01-15T04:21:53;12.55;;;4.70;;
58820;SDS011;70670;52.476;13.334;2024-01-15T04:24:19;10.13;;;5.00;;
58820;SDS011;70670;52.476;13.334;2024-01-15T04:26:45;12.57;;;4.45;;
58820;SDS011;70670;52.476;13.334;2024-01-15T04:29:11;12.32;;;4.43;;
58820;SDS011;70670;52.476;13.334;2024-01-15T04:31:37;12.52;;;5.28;;
58820;SDS011;70670;52.476;13.334;2024-01-15T04:34:02;8.57;;;4.55;;
58820;SDS011;70670;52.476;13.334;2024-01-15T04:36:28;11.88;;;3.50;;
58820;SDS011;70670;52.476;13.334;2024-01-15T04:38:54;10.93;;;3.75;;
58820;SDS011;70670;52.476;13.334;2024-01-15T04:41:19;14.07;;;3.90;;
58820;SDS011;70670;52.476;13.334;2024-01-15T04:43:45;11.88;;;3.80;;
58820;SDS011;70670;52.476;13.334;2024-01-15T04:46:11;8.55;;;3.97;;
58820;SDS011;70670;52.476;13.334;2024-01-15T04:48:37;7.55;;;3.40;;
58820;SDS011;70670;52.476;13.334;2024-01-15T04:51:05;12.05;;;3.70;;
58820;SDS011;70670;52.476;13.334;2024-01-15T04:53:34;12.63;;;3.42;;
58820;SDS011;70670;52.476;13.334;2024-01-15T04:56:01;11.02;;;2.53;;
58820;SDS011;70670;52.476;13.334;2024-01-15T04:58:26;10.60;;;3.33;;
58820;SDS011;70670;52.476;13.334;2024-01-15T05:00:52;7.63;;;3.08;;
58820;SDS011;70670;52.476;13.334;2024-01-15T05:03:18;17.45;;;4.40;;
58820;SDS011;70670;52.476;13.334;2024-01-15T05:05:44;9.38;;;2.45;;
58820;SDS011;70670;52.476;13.334;2024-01-15T05:08:09;9.52;;;2.47;;
58820;SDS011;70670;52.476;13.334;2024-01-15T05:10:35;8.93;;;3.00;;
58820;SDS011;70670;52.476;13.334;2024-01-15T05:13:01;13.55;;;3.20;;
58820;SDS011;70670;52.476;13.334;2024-01-15T05:15:26;8.20;;;2.20;;
58820;SDS011;70670;52.476;13.334;2024-01-15T05:17:52;5.30;;;2.03;;
58820;SDS011;70670;52.476;13.334;2024-01-15T05:20:17;10.80;;;2.67;;
58820;SDS011;70670;52.476;13.334;2024-01-15T05:22:43;7.90;;;2.80;;
58820;SDS011;70670;52.476;13.334;2024-01-15T05:25:09;7.68;;;2.30;;
58820;SDS011;70670;52.476;13.334;2024-01-15T05:27:34;8.77;;;2.58;;
58820;SDS011;70670;52.476;13.334;2024-01-15T05:30:00;10.15;;;2.75;;
58820;SDS011;70670;52.476;13.334;2024-01-15T05:32:26;7.57;;;2.28;;
58820;SDS011;70670;52.476;13.334;2024-01-15T05:34:51;6.68;;;2.75;;
58820;SDS011;70670;52.476;13.334;2024-01-15T05:37:17;12.27;;;2.42;;
58820;SDS011;70670;52.476;13.334;2024-01-15T05:39:42;15.55;;;2.80;;
58820;SDS011;70670;52.476;13.334;2024-01-15T05:42:08;5.03;;;1.80;;
58820;SDS011;70670;52.476;13.334;2024-01-15T05:44:34;6.57;;;1.83;;
58820;SDS011;70670;52.476;13.334;2024-01-15T05:46:59;10.07;;;2.53;;
58820;SDS011;70670;52.476;13.334;2024-01-15T05:49:26;17.20;;;2.22;;
58820;SDS011;70670;52.476;13.334;2024-01-15T05:51:51;8.60;;;2.50;;
58820;SDS011;70670;52.476;13.334;2024-01-15T05:54:18;11.07;;;2.08;;
58820;SDS011;70670;52.476;13.334;2024-01-15T05:56:45;9.65;;;2.60;;
58820;SDS011;70670;52.476;13.334;2024-01-15T05:59:10;12.57;;;1.88;;
58820;SDS011;70670;52.476;13.334;2024-01-15T06:01:36;7.90;;;3.13;;
58820;SDS011;70670;52.476;13.334;2024-01-15T06:04:01;7.28;;;1.98;;
58820;SDS011;70670;52.476;13.334;2024-01-15T06:06:27;13.18;;;1.65;;
58820;SDS011;70670;52.476;13.334;2024-01-15T06:08:53;8.60;;;2.78;;
58820;SDS011;70670;52.476;13.334;2024-01-15T06:11:18;8.20;;;2.03;;
58820;SDS011;70670;52.476;13.334;2024-01-15T06:13:44;7.43;;;1.85;;
58820;SDS011;70670;52.476;13.334;2024-01-15T06:16:13;12.18;;;2.20;;
58820;SDS011;70670;52.476;13.334;2024-01-15T06:18:40;10.60;;;2.58;;
58820;SDS011;70670;52.476;13.334;2024-01-15T06:21:06;8.07;;;2.00;;
58820;SDS011;70670;52.476;13.334;2024-01-15T06:23:31;8.82;;;1.98;;
58820;SDS011;70670;52.476;13.334;2024-01-15T06:25:57;7.82;;;1.90;;
58820;SDS011;70670;52.476;13.334;2024-01-15T06:28:22;5.78;;;1.83;;
58820;SDS011;70670;52.476;13.334;2024-01-15T06:30:48;13.07;;;2.63;;
58820;SDS011;70670;52.476;13.334;2024-01-15T06:33:13;15.95;;;1.92;;
58820;SDS011;70670;52.476;13.334;2024-01-15T06:35:39;5.82;;;1.75;;
58820;SDS011;70670;52.476;13.334;2024-01-15T06:38:05;13.25;;;2.17;;
58820;SDS011;70670;52.476;13.334;2024-01-15T06:40:30;7.13;;;1.88;;
58820;SDS011;70670;52.476;13.334;2024-01-15T06:42:56;9.48;;;1.50;;
58820;SDS011;70670;52.476;13.334;2024-01-15T06:45:22;10.13;;;1.88;;
58820;SDS011;70670;52.476;13.334;2024-01-15T06:47:47;10.15;;;2.10;;
58820;SDS011;70670;52.476;13.334;2024-01-15T06:50:13;7.32;;;2.10;;
58820;SDS011;70670;52.476;13.334;2024-01-15T06:52:38;9.75;;;1.48;;
58820;SDS011;70670;52.476;13.334;2024-01-15T06:55:04;14.50;;;1.45;;
58820;SDS011;70670;52.476;13.334;2024-01-15T06:57:31;7.85;;;1.52;;
58820;SDS011;70670;52.476;13.334;2024-01-15T06:59:56;11.98;;;2.00;;
58820;SDS011;70670;52.476;13.334;2024-01-15T07:02:22;8.07;;;1.77;;
58820;SDS011;70670;52.476;13.334;2024-01-15T07:04:48;9.65;;;1.73;;
58820;SDS011;70670;52.476;13.334;2024-01-15T07:07:13;9.13;;;1.73;;
58820;SDS011;70670;52.476;13.334;2024-01-15T07:09:39;14.50;;;1.45;;
58820;SDS011;70670;52.476;13.334;2024-01-15T07:12:04;13.30;;;2.65;;
58820;SDS011;70670;52.476;13.334;2024-01-15T07:14:30;7.20;;;1.15;;
58820;SDS011;70670;52.476;13.334;2024-01-15T07:16:55;7.28;;;1.40;;
58820;SDS011;70670;52.476;13.334;2024-01-15T07:19:21;7.97;;;1.63;;
58820;SDS011;70670;52.476;13.334;2024-01-15T07:21:47;14.93;;;2.88;;
58820;SDS011;70670;52.476;13.334;2024-01-15T07:24:13;7.88;;;1.20;;
58820;SDS011;70670;52.476;13.334;2024-01-15T07:26:38;7.25;;;1.48;;
58820;SDS011;70670;52.476;13.334;2024-01-15T07:29:04;9.10;;;1.60;;
58820;SDS011;70670;52.476;13.334;2024-01-15T07:31:30;13.68;;;2.03;;
58820;SDS011;70670;52.476;13.334;2024-01-15T07:33:56;7.00;;;1.38;;
58820;SDS011;70670;52.476;13.334;2024-01-15T07:36:21;7.28;;;1.25;;
58820;SDS011;70670;52.476;13.334;2024-01-15T07:38:47;13.45;;;2.17;;
58820;SDS011;70670;52.476;13.334;2024-01-15T07:41:13;9.98;;;1.38;;
58820;SDS011;70670;52.476;13.334;2024-01-15T07:43:39;9.98;;;1.65;;
58820;SDS011;70670;52.476;13.334;2024-01-15T07:46:04;12.90;;;1.17;;
58820;SDS011;70670;52.476;13.334;2024-01-15T07:48:30;10.45;;;1.30;;
58820;SDS011;70670;52.476;13.334;2024-01-15T07:50:55;10.57;;;1.08;;
58820;SDS011;70670;52.476;13.334;2024-01-15T07:53:21;9.30;;;1.73;;
58820;SDS011;70670;52.476;13.334;2024-01-15T07:55:47;11.88;;;1.40;;
58820;SDS011;70670;52.476;13.334;2024-01-15T07:58:12;11.60;;;1.60;;
58820;SDS011;70670;52.476;13.334;2024-01-15T08:00:39;13.85;;;1.17;;
58820;SDS011;70670;52.476;13.334;2024-01-15T08:03:05;12.23;;;1.50;;
58820;SDS011;70670;52.476;13.334;2024-01-15T08:05:31;9.15;;;2.17;;
58820;SDS011;70670;52.476;13.334;2024-01-15T08:07:57;6.15;;;1.13;;
58820;SDS011;70670;52.476;13.334;2024-01-15T08:10:23;13.35;;;1.40;;
58820;SDS011;70670;52.476;13.334;2024-01-15T08:12:48;6.35;;;1.23;;
58820;SDS011;70670;52.476;13.334;2024-01-15T08:15:14;10.60;;;1.35;;
58820;SDS011;70670;52.476;13.334;2024-01-15T08:17:40;8.60;;;1.58;;
58820;SDS011;70670;52.476;13.334;2024-01-15T08:20:06;6.85;;;1.25;;
58820;SDS011;70670;52.476;13.334;2024-01-15T08:22:31;13.27;;;1.88;;
58820;SDS011;70670;52.476;13.334;2024-01-15T08:24:57;10.52;;;1.90;;
58820;SDS011;70670;52.476;13.334;2024-01-15T08:27:22;12.30;;;2.25;;
58820;SDS011;70670;52.476;13.334;2024-01-15T08:29:48;6.97;;;1.15;;
58820;SDS011;70670;52.476;13.334;2024-01-15T08:32:14;6.13;;;1.20;;
58820;SDS011;70670;52.476;13.334;2024-01-15T08:34:41;8.75;;;1.05;;
58820;SDS011;70670;52.476;13.334;2024-01-15T08:37:07;9.15;;;2.33;;
58820;SDS011;70670;52.476;13.334;2024-01-15T08:39:33;11.13;;;1.25;;
58820;SDS011;70670;52.476;13.334;2024-01-15T08:41:58;6.18;;;0.95;;
58820;SDS011;70670;52.476;13.334;2024-01-15T08:44:24;9.60;;;1.25;;
58820;SDS011;70670;52.476;13.334;2024-01-15T08:46:50;5.70;;;1.38;;
58820;SDS011;70670;52.476;13.334;2024-01-15T08:49:16;9.93;;;1.13;;
58820;SDS011;70670;52.476;13.334;2024-01-15T08:51:41;10.70;;;2.08;;
58820;SDS011;70670;52.476;13.334;2024-01-15T08:54:07;9.95;;;1.58;;
58820;SDS011;70670;52.476;13.334;2024-01-15T08:56:33;10.27;;;1.77;;
58820;SDS011;70670;52.476;13.334;2024-01-15T08:58:59;6.80;;;1.33;;
58820;SDS011;70670;52.476;13.334;2024-01-15T09:01:25;8.65;;;1.52;;
58820;SDS011;70670;52.476;13.334;2024-01-15T09:03:51;6.75;;;0.88;;
58820;SDS011;70670;52.476;13.334;2024-01-15T09:06:16;5.60;;;1.52;;
58820;SDS011;70670;52.476;13.334;2024-01-15T09:08:42;10.85;;;2.15;;
58820;SDS011;70670;52.476;13.334;2024-01-15T09:11:07;7.68;;;1.13;;
58820;SDS011;70670;52.476;13.334;2024-01-15T09:13:33;12.82;;;1.95;;
58820;SDS011;70670;52.476;13.334;2024-01-15T09:15:59;13.70;;;1.38;;
58820;SDS011;70670;52.476;13.334;2024-01-15T09:18:25;7.50;;;1.17;;
58820;SDS011;70670;52.476;13.334;2024-01-15T09:20:51;7.90;;;1.30;;
58820;SDS011;70670;52.476;13.334;2024-01-15T09:23:16;6.55;;;1.38;;
58820;SDS011;70670;52.476;13.334;2024-01-15T09:25:42;5.97;;;1.25;;
58820;SDS011;70670;52.476;13.334;2024-01-15T09:28:08;9.75;;;1.85;;
58820;SDS011;70670;52.476;13.334;2024-01-15T09:30:33;8.68;;;1.20;;
58820;SDS011;70670;52.476;13.334;2024-01-15T09:33:01;6.95;;;1.50;;
58820;SDS011;70670;52.476;13.334;2024-01-15T09:35:26;11.57;;;1.42;;
58820;SDS011;70670;52.476;13.334;2024-01-15T09:37:53;10.68;;;1.25;;
58820;SDS011;70670;52.476;13.334;2024-01-15T09:40:18;11.15;;;1.77;;
58820;SDS011;70670;52.476;13.334;2024-01-15T09:42:46;9.10;;;1.52;;
58820;SDS011;70670;52.476;13.334;2024-01-15T09:45:12;10.68;;;1.50;;
58820;SDS011;70670;52.476;13.334;2024-01-15T09:47:38;4.78;;;1.05;;
58820;SDS011;70670;52.476;13.334;2024-01-15T09:50:05;7.53;;;1.38;;
58820;SDS011;70670;52.476;13.334;2024-01-15T09:52:31;10.30;;;2.83;;
58820;SDS011;70670;52.476;13.334;2024-01-15T09:54:59;8.43;;;1.40;;
58820;SDS011;70670;52.476;13.334;2024-01-15T09:57:28;10.50;;;1.60;;
58820;SDS011;70670;52.476;13.334;2024-01-15T09:59:54;12.02;;;1.80;;
58820;SDS011;70670;52.476;13.334;2024-01-15T10:02:21;9.90;;;1.50;;
58820;SDS011;70670;52.476;13.334;2024-01-15T10:04:47;7.95;;;1.10;;
58820;SDS011;70670;52.476;13.334;2024-01-15T10:07:16;4.00;;;1.00;;
58820;SDS011;70670;52.476;13.334;2024-01-15T10:09:44;4.88;;;1.10;;
58820;SDS011;70670;52.476;13.334;2024-01-15T10:12:11;9.35;;;1.45;;
58820;SDS011;70670;52.476;13.334;2024-01-15T10:14:37;7.15;;;1.38;;
58820;SDS011;70670;52.476;13.334;2024-01-15T10:17:11;7.85;;;1.75;;
58820;SDS011;70670;52.476;13.334;2024-01-15T10:19:38;5.22;;;1.15;;
58820;SDS011;70670;52.476;13.334;2024-01-15T10:22:03;4.93;;;1.48;;
58820;SDS011;70670;52.476;13.334;2024-01-15T10:24:29;7.05;;;1.52;;
58820;SDS011;70670;52.476;13.334;2024-01-15T10:27:04;4.78;;;1.05;;
58820;SDS011;70670;52.476;13.334;2024-01-15T10:29:31;5.53;;;1.17;;
58820;SDS011;70670;52.476;13.334;2024-01-15T10:31:57;4.00;;;1.30;;
58820;SDS011;70670;52.476;13.334;2024-01-15T10:34:22;4.43;;;1.00;;
58820;SDS011;70670;52.476;13.334;2024-01-15T10:36:49;2.80;;;1.30;;
58820;SDS011;70670;52.476;13.334;2024-01-15T10:39:20;8.18;;;0.95;;
58820;SDS011;70670;52.476;13.334;2024-01-15T10:41:47;6.53;;;1.02;;
58820;SDS011;70670;52.476;13.334;2024-01-15T10:44:12;7.07;;;1.20;;
58820;SDS011;70670;52.476;13.334;2024-01-15T10:46:38;4.40;;;1.20;;
58820;SDS011;70670;52.476;13.334;2024-01-15T10:49:04;3.53;;;1.08;;
58820;SDS011;70670;52.476;13.334;2024-01-15T10:51:30;2.50;;;1.10;;
58820;SDS011;70670;52.476;13.334;2024-01-15T10:53:56;4.15;;;0.90;;
58820;SDS011;70670;52.476;13.334;2024-01-15T10:56:22;4.35;;;1.38;;
58820;SDS011;70670;52.476;13.334;2024-01-15T10:58:49;3.90;;;1.02;;
58820;SDS011;70670;52.476;13.334;2024-01-15T11:01:16;6.50;;;1.48;;
58820;SDS011;70670;52.476;13.334;2024-01-15T11:03:42;7.75;;;1.40;;
58820;SDS011;70670;52.476;13.334;2024-01-15T11:06:18;4.35;;;0.90;;
58820;SDS011;70670;52.476;13.334;2024-01-15T11:08:49;3.83;;;0.55;;
58820;SDS011;70670;52.476;13.334;2024-01-15T11:11:16;10.48;;;1.00;;
58820;SDS011;70670;52.476;13.334;2024-01-15T11:13:43;6.55;;;1.08;;
58820;SDS011;70670;52.476;13.334;2024-01-15T11:16:10;1.85;;;0.70;;
58820;SDS011;70670;52.476;13.334;2024-01-15T11:18:40;2.80;;;0.70;;
58820;SDS011;70670;52.476;13.334;2024-01-15T11:26:26;1.38;;;0.80;;
58820;SDS011;70670;52.476;13.334;2024-01-15T11:29:03;1.48;;;0.60;;
58820;SDS011;70670;52.476;13.334;2024-01-15T11:31:56;3.05;;;0.70;;
58820;SDS011;70670;52.476;13.334;2024-01-15T11:37:18;1.05;;;0.65;;
58820;SDS011;70670;52.476;13.334;2024-01-15T11:39:44;3.40;;;1.00;;
58820;SDS011;70670;52.476;13.334;2024-01-15T11:42:12;1.30;;;1.15;;
58820;SDS011;70670;52.476;13.334;2024-01-15T11:44:38;4.03;;;1.02;;
58820;SDS011;70670;52.476;13.334;2024-01-15T11:47:08;3.03;;;0.80;;
58820;SDS011;70670;52.476;13.334;2024-01-15T11:52:09;3.38;;;0.98;;
58820;SDS011;70670;52.476;13.334;2024-01-15T11:54:40;2.00;;;0.88;;
58820;SDS011;70670;52.476;13.334;2024-01-15T11:57:15;3.63;;;1.10;;
58820;SDS011;70670;52.476;13.334;2024-01-15T11:59:50;2.53;;;0.90;;
58820;SDS011;70670;52.476;13.334;2024-01-15T12:02:16;1.30;;;1.00;;
58820;SDS011;70670;52.476;13.334;2024-01-15T12:04:42;2.40;;;0.90;;
58820;SDS011;70670;52.476;13.334;2024-01-15T12:07:08;3.20;;;1.65;;
58820;SDS011;70670;52.476;13.334;2024-01-15T12:09:33;1.52;;;1.25;;
58820;SDS011;70670;52.476;13.334;2024-01-15T12:12:03;2.60;;;1.90;;
58820;SDS011;70670;52.476;13.334;2024-01-15T12:14:32;1.08;;;0.88;;
58820;SDS011;70670;52.476;13.334;2024-01-15T12:17:00;1.10;;;0.95;;
58820;SDS011;70670;52.476;13.334;2024-01-15T12:19:25;2.45;;;1.05;;
58820;SDS011;70670;52.476;13.334;2024-01-15T12:21:51;2.00;;;1.05;;
58820;SDS011;70670;52.476;13.334;2024-01-15T12:24:17;1.80;;;1.30;;
58820;SDS011;70670;52.476;13.334;2024-01-15T12:26:43;2.97;;;1.10;;
58820;SDS011;70670;52.476;13.334;2024-01-15T12:29:10;2.25;;;1.00;;
58820;SDS011;70670;52.476;13.334;2024-01-15T12:31:36;3.58;;;1.20;;
58820;SDS011;70670;52.476;13.334;2024-01-15T12:34:02;1.27;;;1.17;;
58820;SDS011;70670;52.476;13.334;2024-01-15T12:36:30;3.00;;;1.20;;
58820;SDS011;70670;52.476;13.334;2024-01-15T12:38:59;2.10;;;1.10;;
58820;SDS011;70670;52.476;13.334;2024-01-15T12:41:25;2.97;;;1.73;;
58820;SDS011;70670;52.476;13.334;2024-01-15T12:43:50;0.57;;;0.52;;
58820;SDS011;70670;52.476;13.334;2024-01-15T12:46:16;3.22;;;0.98;;
58820;SDS011;70670;52.476;13.334;2024-01-15T12:48:42;0.95;;;0.90;;
58820;SDS011;70670;52.476;13.334;2024-01-15T12:51:08;2.08;;;1.00;;
58820;SDS011;70670;52.476;13.334;2024-01-15T12:53:33;2.70;;;0.98;;
58820;SDS011;70670;52.476;13.334;2024-01-15T12:56:00;4.05;;;1.10;;
58820;SDS011;70670;52.476;13.334;2024-01-15T12:58:25;2.40;;;0.90;;
58820;SDS011;70670;52.476;13.334;2024-01-15T13:00:51;1.00;;;0.90;;
58820;SDS011;70670;52.476;13.334;2024-01-15T13:03:17;3.63;;;1.42;;
58820;SDS011;70670;52.476;13.334;2024-01-15T13:05:43;2.60;;;0.98;;
58820;SDS011;70670;52.476;13.334;2024-01-15T13:08:10;1.92;;;1.20;;
58820;SDS011;70670;52.476;13.334;2024-01-15T13:10:36;1.95;;;1.20;;
58820;SDS011;70670;52.476;13.334;2024-01-15T13:13:01;4.30;;;1.23;;
58820;SDS011;70670;52.476;13.334;2024-01-15T13:15:27;1.77;;;1.15;;
58820;SDS011;70670;52.476;13.334;2024-01-15T13:17:53;2.17;;;1.42;;
58820;SDS011;70670;52.476;13.334;2024-01-15T13:20:18;3.10;;;1.42;;
58820;SDS011;70670;52.476;13.334;2024-01-15T13:22:44;2.03;;;1.20;;
58820;SDS011;70670;52.476;13.334;2024-01-15T13:25:11;2.10;;;1.00;;
58820;SDS011;70670;52.476;13.334;2024-01-15T13:27:36;5.93;;;1.60;;
58820;SDS011;70670;52.476;13.334;2024-01-15T13:30:03;4.30;;;1.10;;
58820;SDS011;70670;52.476;13.334;2024-01-15T13:32:32;3.95;;;1.45;;
58820;SDS011;70670;52.476;13.334;2024-01-15T13:34:59;1.88;;;1.33;;
58820;SDS011;70670;52.476;13.334;2024-01-15T13:37:24;3.40;;;1.25;;
58820;SDS011;70670;52.476;13.334;2024-01-15T13:39:50;2.20;;;1.00;;
58820;SDS011;70670;52.476;13.334;2024-01-15T13:42:19;3.47;;;1.42;;
58820;SDS011;70670;52.476;13.334;2024-01-15T13:44:47;3.40;;;1.40;;
58820;SDS011;70670;52.476;13.334;2024-01-15T13:47:13;2.55;;;1.27;;
58820;SDS011;70670;52.476;13.334;2024-01-15T13:49:39;4.03;;;1.10;;
58820;SDS011;70670;52.476;13.334;2024-01-15T13:52:04;4.13;;;1.35;;
58820;SDS011;70670;52.476;13.334;2024-01-15T13:54:30;7.20;;;1.67;;
58820;SDS011;70670;52.476;13.334;2024-01-15T13:56:56;3.20;;;1.40;;
58820;SDS011;70670;52.476;13.334;2024-01-15T13:59:22;7.28;;;1.20;;
58820;SDS011;70670;52.476;13.334;2024-01-15T14:01:48;8.20;;;1.50;;
58820;SDS011;70670;52.476;13.334;2024-01-15T14:04:13;3.38;;;1.10;;
58820;SDS011;70670;52.476;13.334;2024-01-15T14:06:39;5.35;;;0.95;;
58820;SDS011;70670;52.476;13.334;2024-01-15T14:09:05;4.75;;;1.52;;
58820;SDS011;70670;52.476;13.334;2024-01-15T14:11:30;8.27;;;1.50;;
58820;SDS011;70670;52.476;13.334;2024-01-15T14:13:56;5.43;;;1.90;;
58820;SDS011;70670;52.476;13.334;2024-01-15T14:16:22;6.90;;;1.40;;
58820;SDS011;70670;52.476;13.334;2024-01-15T14:18:48;1.35;;;0.93;;
58820;SDS011;70670;52.476;13.334;2024-01-15T14:21:13;6.22;;;1.60;;
58820;SDS011;70670;52.476;13.334;2024-01-15T14:23:40;7.50;;;1.52;;
58820;SDS011;70670;52.476;13.334;2024-01-15T14:26:05;4.35;;;1.35;;
58820;SDS011;70670;52.476;13.334;2024-01-15T14:28:31;7.95;;;1.27;;
58820;SDS011;70670;52.476;13.334;2024-01-15T14:30:57;3.30;;;1.65;;
58820;SDS011;70670;52.476;13.334;2024-01-15T14:33:25;8.63;;;1.13;;
58820;SDS011;70670;52.476;13.334;2024-01-15T14:35:52;5.53;;;1.27;;